sensor_id;sensor_type;location;lat;lon;timestamp;P1;durP1;ratioP1;P2;durP2;ratioP2
35971;SDS011;22052;0.000;0.000;2022-07-09T00:01:07;5.75;;;1.60;;
35971;SDS011;22052;0.000;0.000;2022-07-09T00:03:40;4.43;;;1.10;;
35971;SDS011;22052;0.000;0.000;2022-07-09T00:06:16;4.88;;;1.08;;
35971;SDS011;22052;0.000;0.000;2022-07-09T00:08:46;4.10;;;1.20;;
35971;SDS011;22052;0.000;0.000;2022-07-09T00:11:14;4.60;;;1.52;;
35971;SDS011;22052;0.000;0.000;2022-07-09T00:13:41;6.68;;;1.10;;
35971;SDS011;22052;0.000;0.000;2022-07-09T00:16:25;5.93;;;1.40;;
35971;SDS011;22052;0.000;0.000;2022-07-09T00:19:05;4.55;;;1.02;;
35971;SDS011;22052;0.000;0.000;2022-07-09T00:21:32;4.30;;;1.10;;
35971;SDS011;22052;0.000;0.000;2022-07-09T00:24:00;4.32;;;1.10;;
35971;SDS011;22052;0.000;0.000;2022-07-09T00:26:33;5.15;;;1.23;;
35971;SDS011;22052;0.000;0.000;2022-07-09T00:29:07;2.38;;;0.90;;
35971;SDS011;22052;0.000;0.000;2022-07-09T00:31:40;5.43;;;1.33;;
35971;SDS011;22052;0.000;0.000;2022-07-09T00:34:31;3.90;;;1.13;;
35971;SDS011;22052;0.000;0.000;2022-07-09T00:36:59;4.85;;;1.15;;
35971;SDS011;22052;0.000;0.000;2022-07-09T00:39:27;3.95;;;1.10;;
35971;SDS011;22052;0.000;0.000;2022-07-09T00:42:10;4.13;;;1.23;;
35971;SDS011;22052;0.000;0.000;2022-07-09T00:44:42;5.88;;;1.30;;
35971;SDS011;22052;0.000;0.000;2022-07-09T00:47:12;4.22;;;1.25;;
35971;SDS011;22052;0.000;0.000;2022-07-09T00:49:42;5.60;;;1.30;;
35971;SDS011;22052;0.000;0.000;2022-07-09T00:52:12;4.45;;;1.40;;
35971;SDS011;22052;0.000;0.000;2022-07-09T00:54:42;4.55;;;1.40;;
35971;SDS011;22052;0.000;0.000;2022-07-09T00:57:15;4.80;;;1.30;;
35971;SDS011;22052;0.000;0.000;2022-07-09T00:59:46;3.67;;;1.23;;
35971;SDS011;22052;0.000;0.000;2022-07-09T01:02:17;4.35;;;1.17;;
35971;SDS011;22052;0.000;0.000;2022-07-09T01:04:46;3.47;;;1.27;;
35971;SDS011;22052;0.000;0.000;2022-07-09T01:07:22;2.83;;;1.08;;
35971;SDS011;22052;0.000;0.000;2022-07-09T01:09:51;3.53;;;1.10;;
35971;SDS011;22052;0.000;0.000;2022-07-09T01:12:24;4.68;;;1.20;;
35971;SDS011;22052;0.000;0.000;2022-07-09T01:14:53;3.42;;;1.20;;
35971;SDS011;22052;0.000;0.000;2022-07-09T01:17:22;4.00;;;1.00;;
35971;SDS011;22052;0.000;0.000;2022-07-09T01:19:53;3.92;;;1.10;;
35971;SDS011;22052;0.000;0.000;2022-07-09T01:22:20;2.83;;;1.13;;
35971;SDS011;22052;0.000;0.000;2022-07-09T01:24:49;2.95;;;1.13;;
35971;SDS011;22052;0.000;0.000;2022-07-09T01:27:18;4.60;;;1.05;;
35971;SDS011;22052;0.000;0.000;2022-07-09T01:29:46;3.47;;;1.30;;
35971;SDS011;22052;0.000;0.000;2022-07-09T01:32:18;3.33;;;0.95;;
35971;SDS011;22052;0.000;0.000;2022-07-09T01:34:47;2.53;;;0.90;;
35971;SDS011;22052;0.000;0.000;2022-07-09T01:37:15;3.58;;;1.23;;
35971;SDS011;22052;0.000;0.000;2022-07-09T01:39:43;3.08;;;1.13;;
35971;SDS011;22052;0.000;0.000;2022-07-09T01:42:22;2.50;;;1.00;;
35971;SDS011;22052;0.000;0.000;2022-07-09T01:44:57;3.15;;;1.08;;
35971;SDS011;22052;0.000;0.000;2022-07-09T01:47:30;2.42;;;0.95;;
35971;SDS011;22052;0.000;0.000;2022-07-09T01:50:10;2.47;;;1.10;;
35971;SDS011;22052;0.000;0.000;2022-07-09T01:52:40;2.42;;;1.10;;
35971;SDS011;22052;0.000;0.000;2022-07-09T01:55:07;3.47;;;1.08;;
35971;SDS011;22052;0.000;0.000;2022-07-09T01:57:36;4.90;;;1.08;;
35971;SDS011;22052;0.000;0.000;2022-07-09T02:00:04;3.13;;;1.10;;
35971;SDS011;22052;0.000;0.000;2022-07-09T02:02:32;4.38;;;1.10;;
35971;SDS011;22052;0.000;0.000;2022-07-09T02:05:00;1.70;;;0.80;;
35971;SDS011;22052;0.000;0.000;2022-07-09T02:07:27;3.10;;;1.08;;
35971;SDS011;22052;0.000;0.000;2022-07-09T02:10:11;1.92;;;1.08;;
35971;SDS011;22052;0.000;0.000;2022-07-09T02:12:44;2.60;;;1.08;;
35971;SDS011;22052;0.000;0.000;2022-07-09T02:15:12;2.05;;;1.00;;
35971;SDS011;22052;0.000;0.000;2022-07-09T02:17:41;4.05;;;1.00;;
35971;SDS011;22052;0.000;0.000;2022-07-09T02:20:09;2.88;;;1.00;;
35971;SDS011;22052;0.000;0.000;2022-07-09T02:22:37;3.17;;;0.90;;
35971;SDS011;22052;0.000;0.000;2022-07-09T02:25:08;3.22;;;1.05;;
35971;SDS011;22052;0.000;0.000;2022-07-09T02:27:40;2.83;;;0.90;;
35971;SDS011;22052;0.000;0.000;2022-07-09T02:30:07;4.03;;;1.08;;
35971;SDS011;22052;0.000;0.000;2022-07-09T02:32:35;1.98;;;1.00;;
35971;SDS011;22052;0.000;0.000;2022-07-09T02:35:09;3.50;;;1.00;;
35971;SDS011;22052;0.000;0.000;2022-07-09T02:37:37;3.08;;;1.13;;
35971;SDS011;22052;0.000;0.000;2022-07-09T02:40:05;3.88;;;1.25;;
35971;SDS011;22052;0.000;0.000;2022-07-09T02:42:34;2.45;;;1.00;;
35971;SDS011;22052;0.000;0.000;2022-07-09T02:45:03;2.65;;;0.95;;
35971;SDS011;22052;0.000;0.000;2022-07-09T02:47:30;2.22;;;1.00;;
35971;SDS011;22052;0.000;0.000;2022-07-09T02:50:00;3.15;;;0.90;;
35971;SDS011;22052;0.000;0.000;2022-07-09T02:52:42;3.30;;;1.10;;
35971;SDS011;22052;0.000;0.000;2022-07-09T02:55:10;3.15;;;1.13;;
35971;SDS011;22052;0.000;0.000;2022-07-09T02:57:42;1.90;;;0.83;;
35971;SDS011;22052;0.000;0.000;2022-07-09T03:00:13;4.55;;;1.20;;
35971;SDS011;22052;0.000;0.000;2022-07-09T03:02:44;2.15;;;0.88;;
35971;SDS011;22052;0.000;0.000;2022-07-09T03:05:12;3.60;;;1.27;;
35971;SDS011;22052;0.000;0.000;2022-07-09T03:07:40;3.17;;;1.15;;
35971;SDS011;22052;0.000;0.000;2022-07-09T03:10:10;2.67;;;0.88;;
35971;SDS011;22052;0.000;0.000;2022-07-09T03:12:39;2.40;;;0.98;;
35971;SDS011;22052;0.000;0.000;2022-07-09T03:15:08;3.50;;;1.08;;
35971;SDS011;22052;0.000;0.000;2022-07-09T03:17:41;2.30;;;0.80;;
35971;SDS011;22052;0.000;0.000;2022-07-09T03:20:10;3.22;;;1.02;;
35971;SDS011;22052;0.000;0.000;2022-07-09T03:22:38;3.08;;;1.00;;
35971;SDS011;22052;0.000;0.000;2022-07-09T03:25:06;1.67;;;0.90;;
35971;SDS011;22052;0.000;0.000;2022-07-09T03:27:41;2.88;;;0.82;;
35971;SDS011;22052;0.000;0.000;2022-07-09T03:30:16;2.00;;;0.80;;
35971;SDS011;22052;0.000;0.000;2022-07-09T03:32:46;1.73;;;0.75;;
35971;SDS011;22052;0.000;0.000;2022-07-09T03:35:14;2.67;;;0.90;;
35971;SDS011;22052;0.000;0.000;2022-07-09T03:37:43;2.88;;;0.90;;
35971;SDS011;22052;0.000;0.000;2022-07-09T03:40:14;3.28;;;0.77;;
35971;SDS011;22052;0.000;0.000;2022-07-09T03:42:43;2.75;;;0.93;;
35971;SDS011;22052;0.000;0.000;2022-07-09T03:45:15;2.75;;;1.00;;
35971;SDS011;22052;0.000;0.000;2022-07-09T03:47:44;2.28;;;0.70;;
35971;SDS011;22052;0.000;0.000;2022-07-09T03:50:17;2.65;;;0.82;;
35971;SDS011;22052;0.000;0.000;2022-07-09T03:52:46;2.47;;;0.80;;
35971;SDS011;22052;0.000;0.000;2022-07-09T03:55:19;1.13;;;0.68;;
35971;SDS011;22052;0.000;0.000;2022-07-09T03:57:46;3.03;;;0.87;;
35971;SDS011;22052;0.000;0.000;2022-07-09T04:00:15;2.15;;;1.05;;
35971;SDS011;22052;0.000;0.000;2022-07-09T04:02:42;2.15;;;0.70;;
35971;SDS011;22052;0.000;0.000;2022-07-09T04:05:12;1.95;;;0.80;;
35971;SDS011;22052;0.000;0.000;2022-07-09T04:07:41;2.55;;;1.00;;
35971;SDS011;22052;0.000;0.000;2022-07-09T04:10:08;2.50;;;0.90;;
35971;SDS011;22052;0.000;0.000;2022-07-09T04:12:37;1.77;;;0.75;;
35971;SDS011;22052;0.000;0.000;2022-07-09T04:15:05;2.22;;;0.90;;
35971;SDS011;22052;0.000;0.000;2022-07-09T04:17:33;1.58;;;0.73;;
35971;SDS011;22052;0.000;0.000;2022-07-09T04:20:01;2.28;;;0.88;;
35971;SDS011;22052;0.000;0.000;2022-07-09T04:22:29;3.45;;;0.93;;
35971;SDS011;22052;0.000;0.000;2022-07-09T04:24:57;1.80;;;0.95;;
35971;SDS011;22052;0.000;0.000;2022-07-09T04:27:25;2.80;;;1.00;;
35971;SDS011;22052;0.000;0.000;2022-07-09T04:29:53;3.95;;;0.80;;
35971;SDS011;22052;0.000;0.000;2022-07-09T04:32:22;2.13;;;0.80;;
35971;SDS011;22052;0.000;0.000;2022-07-09T04:34:50;3.60;;;0.90;;
35971;SDS011;22052;0.000;0.000;2022-07-09T04:37:18;1.85;;;0.90;;
35971;SDS011;22052;0.000;0.000;2022-07-09T04:39:45;1.42;;;0.80;;
35971;SDS011;22052;0.000;0.000;2022-07-09T04:42:12;4.03;;;1.05;;
35971;SDS011;22052;0.000;0.000;2022-07-09T04:44:43;3.78;;;1.08;;
35971;SDS011;22052;0.000;0.000;2022-07-09T04:47:11;4.28;;;1.00;;
35971;SDS011;22052;0.000;0.000;2022-07-09T04:49:44;4.72;;;1.20;;
35971;SDS011;22052;0.000;0.000;2022-07-09T04:52:13;3.38;;;1.17;;
35971;SDS011;22052;0.000;0.000;2022-07-09T04:54:48;2.90;;;1.08;;
35971;SDS011;22052;0.000;0.000;2022-07-09T04:57:16;2.00;;;1.00;;
35971;SDS011;22052;0.000;0.000;2022-07-09T04:59:44;2.33;;;0.98;;
35971;SDS011;22052;0.000;0.000;2022-07-09T05:02:17;1.92;;;1.10;;
35971;SDS011;22052;0.000;0.000;2022-07-09T05:04:46;2.75;;;0.95;;
35971;SDS011;22052;0.000;0.000;2022-07-09T05:07:23;2.90;;;1.00;;
35971;SDS011;22052;0.000;0.000;2022-07-09T05:09:51;2.88;;;1.00;;
35971;SDS011;22052;0.000;0.000;2022-07-09T05:12:18;1.90;;;1.00;;
35971;SDS011;22052;0.000;0.000;2022-07-09T05:14:46;1.65;;;1.00;;
35971;SDS011;22052;0.000;0.000;2022-07-09T05:17:14;2.45;;;1.00;;
35971;SDS011;22052;0.000;0.000;2022-07-09T05:19:43;2.15;;;1.17;;
35971;SDS011;22052;0.000;0.000;2022-07-09T05:22:15;2.72;;;0.98;;
35971;SDS011;22052;0.000;0.000;2022-07-09T05:24:42;3.15;;;1.00;;
35971;SDS011;22052;0.000;0.000;2022-07-09T05:27:11;2.15;;;0.88;;
35971;SDS011;22052;0.000;0.000;2022-07-09T05:29:40;2.92;;;1.00;;
35971;SDS011;22052;0.000;0.000;2022-07-09T05:32:11;2.22;;;0.90;;
35971;SDS011;22052;0.000;0.000;2022-07-09T05:34:43;1.55;;;0.85;;
35971;SDS011;22052;0.000;0.000;2022-07-09T05:37:12;2.10;;;0.87;;
35971;SDS011;22052;0.000;0.000;2022-07-09T05:39:40;1.45;;;0.85;;
35971;SDS011;22052;0.000;0.000;2022-07-09T05:42:08;1.27;;;0.80;;
35971;SDS011;22052;0.000;0.000;2022-07-09T05:44:36;1.38;;;0.90;;
35971;SDS011;22052;0.000;0.000;2022-07-09T05:47:10;2.23;;;1.10;;
35971;SDS011;22052;0.000;0.000;2022-07-09T05:49:41;2.47;;;0.90;;
35971;SDS011;22052;0.000;0.000;2022-07-09T05:52:09;3.50;;;0.93;;
35971;SDS011;22052;0.000;0.000;2022-07-09T05:54:37;3.28;;;1.00;;
35971;SDS011;22052;0.000;0.000;2022-07-09T05:57:05;2.25;;;1.00;;
35971;SDS011;22052;0.000;0.000;2022-07-09T05:59:34;2.03;;;1.00;;
35971;SDS011;22052;0.000;0.000;2022-07-09T06:02:02;2.42;;;0.90;;
35971;SDS011;22052;0.000;0.000;2022-07-09T06:04:33;2.95;;;1.00;;
35971;SDS011;22052;0.000;0.000;2022-07-09T06:07:07;2.60;;;1.00;;
35971;SDS011;22052;0.000;0.000;2022-07-09T06:09:35;1.67;;;0.98;;
35971;SDS011;22052;0.000;0.000;2022-07-09T06:12:03;1.67;;;0.93;;
35971;SDS011;22052;0.000;0.000;2022-07-09T06:14:33;3.22;;;1.10;;
35971;SDS011;22052;0.000;0.000;2022-07-09T06:17:13;1.88;;;1.02;;
35971;SDS011;22052;0.000;0.000;2022-07-09T06:19:46;1.75;;;0.80;;
35971;SDS011;22052;0.000;0.000;2022-07-09T06:22:15;1.23;;;0.80;;
35971;SDS011;22052;0.000;0.000;2022-07-09T06:24:45;1.90;;;0.75;;
35971;SDS011;22052;0.000;0.000;2022-07-09T06:27:14;2.58;;;0.80;;
35971;SDS011;22052;0.000;0.000;2022-07-09T06:29:41;2.70;;;0.95;;
35971;SDS011;22052;0.000;0.000;2022-07-09T06:32:10;2.95;;;1.13;;
35971;SDS011;22052;0.000;0.000;2022-07-09T06:34:39;2.13;;;0.60;;
35971;SDS011;22052;0.000;0.000;2022-07-09T06:37:06;1.63;;;0.80;;
35971;SDS011;22052;0.000;0.000;2022-07-09T06:39:36;1.30;;;0.75;;
35971;SDS011;22052;0.000;0.000;2022-07-09T06:42:15;1.02;;;0.77;;
35971;SDS011;22052;0.000;0.000;2022-07-09T06:44:47;2.88;;;0.90;;
35971;SDS011;22052;0.000;0.000;2022-07-09T06:47:19;2.25;;;0.80;;
35971;SDS011;22052;0.000;0.000;2022-07-09T06:49:47;1.05;;;0.70;;
35971;SDS011;22052;0.000;0.000;2022-07-09T06:52:21;1.58;;;0.63;;
35971;SDS011;22052;0.000;0.000;2022-07-09T06:54:54;1.33;;;0.70;;
35971;SDS011;22052;0.000;0.000;2022-07-09T06:57:29;2.28;;;0.70;;
35971;SDS011;22052;0.000;0.000;2022-07-09T07:00:03;2.58;;;0.82;;
35971;SDS011;22052;0.000;0.000;2022-07-09T07:02:31;1.83;;;0.70;;
35971;SDS011;22052;0.000;0.000;2022-07-09T07:04:59;1.95;;;0.80;;
35971;SDS011;22052;0.000;0.000;2022-07-09T07:07:27;1.15;;;0.80;;
35971;SDS011;22052;0.000;0.000;2022-07-09T07:09:56;1.63;;;0.80;;
35971;SDS011;22052;0.000;0.000;2022-07-09T07:12:24;1.70;;;0.90;;
35971;SDS011;22052;0.000;0.000;2022-07-09T07:14:54;0.95;;;0.65;;
35971;SDS011;22052;0.000;0.000;2022-07-09T07:17:23;1.60;;;0.70;;
35971;SDS011;22052;0.000;0.000;2022-07-09T07:19:52;2.63;;;0.70;;
35971;SDS011;22052;0.000;0.000;2022-07-09T07:22:22;2.03;;;0.90;;
35971;SDS011;22052;0.000;0.000;2022-07-09T07:24:51;1.80;;;0.98;;
35971;SDS011;22052;0.000;0.000;2022-07-09T07:27:20;1.50;;;0.70;;
35971;SDS011;22052;0.000;0.000;2022-07-09T07:29:48;1.08;;;0.60;;
35971;SDS011;22052;0.000;0.000;2022-07-09T07:32:16;2.13;;;0.68;;
35971;SDS011;22052;0.000;0.000;2022-07-09T07:34:45;1.25;;;0.75;;
35971;SDS011;22052;0.000;0.000;2022-07-09T07:37:17;3.47;;;0.70;;
35971;SDS011;22052;0.000;0.000;2022-07-09T07:39:47;2.17;;;0.68;;
35971;SDS011;22052;0.000;0.000;2022-07-09T07:42:18;1.13;;;0.63;;
35971;SDS011;22052;0.000;0.000;2022-07-09T07:44:46;1.75;;;0.80;;
35971;SDS011;22052;0.000;0.000;2022-07-09T07:47:15;1.00;;;0.60;;
35971;SDS011;22052;0.000;0.000;2022-07-09T07:49:49;1.02;;;0.52;;
35971;SDS011;22052;0.000;0.000;2022-07-09T07:52:20;1.75;;;0.80;;
35971;SDS011;22052;0.000;0.000;2022-07-09T07:54:48;0.85;;;0.55;;
35971;SDS011;22052;0.000;0.000;2022-07-09T07:57:17;1.27;;;0.73;;
35971;SDS011;22052;0.000;0.000;2022-07-09T07:59:52;1.27;;;0.70;;
35971;SDS011;22052;0.000;0.000;2022-07-09T08:02:21;1.27;;;0.60;;
35971;SDS011;22052;0.000;0.000;2022-07-09T08:05:02;0.98;;;0.60;;
35971;SDS011;22052;0.000;0.000;2022-07-09T08:07:35;1.25;;;0.60;;
35971;SDS011;22052;0.000;0.000;2022-07-09T08:10:05;1.15;;;0.50;;
35971;SDS011;22052;0.000;0.000;2022-07-09T08:12:34;1.65;;;0.80;;
35971;SDS011;22052;0.000;0.000;2022-07-09T08:15:02;1.67;;;0.70;;
35971;SDS011;22052;0.000;0.000;2022-07-09T08:17:32;1.67;;;0.73;;
35971;SDS011;22052;0.000;0.000;2022-07-09T08:20:06;1.55;;;0.68;;
35971;SDS011;22052;0.000;0.000;2022-07-09T08:22:36;1.38;;;0.80;;
35971;SDS011;22052;0.000;0.000;2022-07-09T08:25:06;0.65;;;0.60;;
35971;SDS011;22052;0.000;0.000;2022-07-09T08:27:40;1.85;;;0.93;;
35971;SDS011;22052;0.000;0.000;2022-07-09T08:30:08;2.00;;;0.60;;
35971;SDS011;22052;0.000;0.000;2022-07-09T08:32:38;0.70;;;0.60;;
35971;SDS011;22052;0.000;0.000;2022-07-09T08:35:06;1.25;;;0.70;;
35971;SDS011;22052;0.000;0.000;2022-07-09T08:37:35;0.90;;;0.50;;
35971;SDS011;22052;0.000;0.000;2022-07-09T08:40:07;2.55;;;0.65;;
35971;SDS011;22052;0.000;0.000;2022-07-09T08:42:42;2.55;;;0.88;;
35971;SDS011;22052;0.000;0.000;2022-07-09T08:45:18;2.33;;;0.73;;
35971;SDS011;22052;0.000;0.000;2022-07-09T08:47:47;1.20;;;0.60;;
35971;SDS011;22052;0.000;0.000;2022-07-09T08:50:18;1.88;;;0.68;;
35971;SDS011;22052;0.000;0.000;2022-07-09T08:52:49;1.80;;;0.70;;
35971;SDS011;22052;0.000;0.000;2022-07-09T08:55:19;0.95;;;0.60;;
35971;SDS011;22052;0.000;0.000;2022-07-09T08:57:49;1.20;;;0.65;;
35971;SDS011;22052;0.000;0.000;2022-07-09T09:00:29;1.00;;;0.70;;
35971;SDS011;22052;0.000;0.000;2022-07-09T09:02:57;2.38;;;1.02;;
35971;SDS011;22052;0.000;0.000;2022-07-09T09:05:27;1.23;;;0.63;;
35971;SDS011;22052;0.000;0.000;2022-07-09T09:07:59;0.70;;;0.60;;
35971;SDS011;22052;0.000;0.000;2022-07-09T09:10:27;1.45;;;0.68;;
35971;SDS011;22052;0.000;0.000;2022-07-09T09:13:00;0.68;;;0.60;;
35971;SDS011;22052;0.000;0.000;2022-07-09T09:15:30;0.73;;;0.55;;
35971;SDS011;22052;0.000;0.000;2022-07-09T09:17:59;2.15;;;0.65;;
35971;SDS011;22052;0.000;0.000;2022-07-09T09:20:44;1.10;;;0.50;;
35971;SDS011;22052;0.000;0.000;2022-07-09T09:23:17;1.98;;;0.77;;
35971;SDS011;22052;0.000;0.000;2022-07-09T09:25:45;1.08;;;0.70;;
35971;SDS011;22052;0.000;0.000;2022-07-09T09:28:20;1.88;;;0.80;;
35971;SDS011;22052;0.000;0.000;2022-07-09T09:30:50;1.95;;;1.20;;
35971;SDS011;22052;0.000;0.000;2022-07-09T09:33:21;2.20;;;1.00;;
35971;SDS011;22052;0.000;0.000;2022-07-09T09:35:52;0.55;;;0.55;;
35971;SDS011;22052;0.000;0.000;2022-07-09T09:38:29;1.88;;;0.85;;
35971;SDS011;22052;0.000;0.000;2022-07-09T09:41:05;1.45;;;0.70;;
35971;SDS011;22052;0.000;0.000;2022-07-09T09:43:33;1.42;;;0.70;;
35971;SDS011;22052;0.000;0.000;2022-07-09T09:46:02;0.70;;;0.50;;
35971;SDS011;22052;0.000;0.000;2022-07-09T09:48:31;1.88;;;0.85;;
35971;SDS011;22052;0.000;0.000;2022-07-09T09:50:59;2.67;;;0.70;;
35971;SDS011;22052;0.000;0.000;2022-07-09T09:53:29;1.65;;;0.70;;
35971;SDS011;22052;0.000;0.000;2022-07-09T09:56:04;1.05;;;0.60;;
35971;SDS011;22052;0.000;0.000;2022-07-09T09:58:35;2.42;;;0.90;;
35971;SDS011;22052;0.000;0.000;2022-07-09T10:01:03;1.08;;;0.68;;
35971;SDS011;22052;0.000;0.000;2022-07-09T10:03:33;1.30;;;0.75;;
35971;SDS011;22052;0.000;0.000;2022-07-09T10:06:02;1.73;;;0.70;;
35971;SDS011;22052;0.000;0.000;2022-07-09T10:08:32;1.45;;;0.80;;
35971;SDS011;22052;0.000;0.000;2022-07-09T10:14:01;1.65;;;1.05;;
35971;SDS011;22052;0.000;0.000;2022-07-09T10:16:54;1.40;;;0.73;;
35971;SDS011;22052;0.000;0.000;2022-07-09T10:19:25;5.28;;;0.80;;
35971;SDS011;22052;0.000;0.000;2022-07-09T10:22:02;1.23;;;0.80;;
35971;SDS011;22052;0.000;0.000;2022-07-09T10:24:32;1.00;;;0.52;;
35971;SDS011;22052;0.000;0.000;2022-07-09T10:27:12;2.33;;;0.80;;
35971;SDS011;22052;0.000;0.000;2022-07-09T10:29:57;0.85;;;0.60;;
35971;SDS011;22052;0.000;0.000;2022-07-09T10:32:29;2.83;;;0.80;;
35971;SDS011;22052;0.000;0.000;2022-07-09T10:35:01;1.33;;;0.70;;
35971;SDS011;22052;0.000;0.000;2022-07-09T10:37:41;2.90;;;0.60;;
35971;SDS011;22052;0.000;0.000;2022-07-09T10:40:10;1.25;;;0.60;;
35971;SDS011;22052;0.000;0.000;2022-07-09T10:42:39;2.88;;;0.90;;
35971;SDS011;22052;0.000;0.000;2022-07-09T10:45:21;5.18;;;0.90;;
35971;SDS011;22052;0.000;0.000;2022-07-09T10:48:05;5.03;;;1.08;;
35971;SDS011;22052;0.000;0.000;2022-07-09T10:50:35;1.00;;;0.80;;
35971;SDS011;22052;0.000;0.000;2022-07-09T10:53:06;1.30;;;0.70;;
35971;SDS011;22052;0.000;0.000;2022-07-09T10:55:43;2.28;;;0.60;;
35971;SDS011;22052;0.000;0.000;2022-07-09T10:58:26;1.15;;;0.90;;
35971;SDS011;22052;0.000;0.000;2022-07-09T11:01:00;2.25;;;0.75;;
35971;SDS011;22052;0.000;0.000;2022-07-09T11:03:52;2.42;;;0.75;;
35971;SDS011;22052;0.000;0.000;2022-07-09T11:06:21;2.35;;;0.80;;
35971;SDS011;22052;0.000;0.000;2022-07-09T11:08:48;1.65;;;0.80;;
35971;SDS011;22052;0.000;0.000;2022-07-09T11:11:23;3.63;;;0.80;;
35971;SDS011;22052;0.000;0.000;2022-07-09T11:13:51;2.85;;;0.70;;
35971;SDS011;22052;0.000;0.000;2022-07-09T11:16:23;1.63;;;0.70;;
35971;SDS011;22052;0.000;0.000;2022-07-09T11:18:54;2.45;;;0.75;;
35971;SDS011;22052;0.000;0.000;2022-07-09T11:21:24;2.22;;;0.98;;
35971;SDS011;22052;0.000;0.000;2022-07-09T11:24:00;1.13;;;0.70;;
35971;SDS011;22052;0.000;0.000;2022-07-09T11:26:33;1.00;;;0.70;;
35971;SDS011;22052;0.000;0.000;2022-07-09T11:29:08;5.07;;;0.60;;
35971;SDS011;22052;0.000;0.000;2022-07-09T11:31:46;2.15;;;0.63;;
35971;SDS011;22052;0.000;0.000;2022-07-09T11:34:16;2.13;;;0.85;;
35971;SDS011;22052;0.000;0.000;2022-07-09T11:36:51;1.35;;;0.60;;
35971;SDS011;22052;0.000;0.000;2022-07-09T11:41:56;2.13;;;0.70;;
35971;SDS011;22052;0.000;0.000;2022-07-09T11:44:25;1.67;;;0.80;;
35971;SDS011;22052;0.000;0.000;2022-07-09T11:52:15;2.55;;;0.80;;
35971;SDS011;22052;0.000;0.000;2022-07-09T11:55:04;2.38;;;0.95;;
35971;SDS011;22052;0.000;0.000;2022-07-09T11:58:05;2.22;;;1.00;;
35971;SDS011;22052;0.000;0.000;2022-07-09T12:00:32;1.83;;;0.80;;
35971;SDS011;22052;0.000;0.000;2022-07-09T12:03:22;1.35;;;0.90;;
35971;SDS011;22052;0.000;0.000;2022-07-09T12:05:52;1.80;;;0.90;;
35971;SDS011;22052;0.000;0.000;2022-07-09T12:08:28;1.25;;;0.77;;
35971;SDS011;22052;0.000;0.000;2022-07-09T12:10:57;1.83;;;0.70;;
35971;SDS011;22052;0.000;0.000;2022-07-09T12:13:25;2.38;;;0.90;;
35971;SDS011;22052;0.000;0.000;2022-07-09T12:15:58;1.38;;;0.80;;
35971;SDS011;22052;0.000;0.000;2022-07-09T12:18:26;3.55;;;0.90;;
35971;SDS011;22052;0.000;0.000;2022-07-09T12:20:55;2.13;;;0.68;;
35971;SDS011;22052;0.000;0.000;2022-07-09T12:23:23;1.30;;;0.70;;
35971;SDS011;22052;0.000;0.000;2022-07-09T12:25:53;1.48;;;0.73;;
35971;SDS011;22052;0.000;0.000;2022-07-09T12:28:26;1.23;;;0.68;;
35971;SDS011;22052;0.000;0.000;2022-07-09T12:30:56;1.33;;;0.73;;
35971;SDS011;22052;0.000;0.000;2022-07-09T12:33:34;3.17;;;0.70;;
35971;SDS011;22052;0.000;0.000;2022-07-09T12:36:02;5.22;;;0.88;;
35971;SDS011;22052;0.000;0.000;2022-07-09T12:38:30;1.95;;;0.70;;
35971;SDS011;22052;0.000;0.000;2022-07-09T12:40:59;1.05;;;0.70;;
35971;SDS011;22052;0.000;0.000;2022-07-09T12:43:38;1.17;;;0.88;;
35971;SDS011;22052;0.000;0.000;2022-07-09T12:46:12;1.30;;;0.63;;
35971;SDS011;22052;0.000;0.000;2022-07-09T12:48:43;0.88;;;0.57;;
35971;SDS011;22052;0.000;0.000;2022-07-09T12:51:20;2.13;;;0.85;;
35971;SDS011;22052;0.000;0.000;2022-07-09T12:53:49;2.75;;;0.70;;
35971;SDS011;22052;0.000;0.000;2022-07-09T12:56:19;1.23;;;0.85;;
35971;SDS011;22052;0.000;0.000;2022-07-09T12:58:47;1.40;;;0.80;;
35971;SDS011;22052;0.000;0.000;2022-07-09T13:01:17;0.93;;;0.70;;
35971;SDS011;22052;0.000;0.000;2022-07-09T13:03:48;1.67;;;0.85;;
35971;SDS011;22052;0.000;0.000;2022-07-09T13:06:18;0.93;;;0.82;;
35971;SDS011;22052;0.000;0.000;2022-07-09T13:09:03;1.17;;;0.70;;
35971;SDS011;22052;0.000;0.000;2022-07-09T13:13:58;2.80;;;0.70;;
35971;SDS011;22052;0.000;0.000;2022-07-09T13:16:27;1.20;;;0.75;;
35971;SDS011;22052;0.000;0.000;2022-07-09T13:18:56;2.65;;;0.80;;
35971;SDS011;22052;0.000;0.000;2022-07-09T13:21:32;0.75;;;0.60;;
35971;SDS011;22052;0.000;0.000;2022-07-09T13:24:10;1.42;;;0.82;;
35971;SDS011;22052;0.000;0.000;2022-07-09T13:29:37;1.10;;;0.75;;
35971;SDS011;22052;0.000;0.000;2022-07-09T13:32:09;1.88;;;0.80;;
35971;SDS011;22052;0.000;0.000;2022-07-09T13:34:38;1.08;;;0.60;;
35971;SDS011;22052;0.000;0.000;2022-07-09T13:37:08;2.25;;;0.63;;
35971;SDS011;22052;0.000;0.000;2022-07-09T13:39:38;2.67;;;0.80;;
35971;SDS011;22052;0.000;0.000;2022-07-09T13:42:06;2.92;;;0.70;;
35971;SDS011;22052;0.000;0.000;2022-07-09T13:44:34;0.80;;;0.60;;
35971;SDS011;22052;0.000;0.000;2022-07-09T13:47:02;0.98;;;0.70;;
35971;SDS011;22052;0.000;0.000;2022-07-09T13:49:34;1.80;;;0.70;;
35971;SDS011;22052;0.000;0.000;2022-07-09T13:52:09;1.02;;;0.70;;
35971;SDS011;22052;0.000;0.000;2022-07-09T13:54:42;1.83;;;1.00;;
35971;SDS011;22052;0.000;0.000;2022-07-09T13:57:11;1.35;;;0.60;;
35971;SDS011;22052;0.000;0.000;2022-07-09T13:59:39;1.25;;;0.70;;
35971;SDS011;22052;0.000;0.000;2022-07-09T14:02:11;1.13;;;0.52;;
35971;SDS011;22052;0.000;0.000;2022-07-09T14:04:39;1.57;;;0.97;;
35971;SDS011;22052;0.000;0.000;2022-07-09T14:07:07;1.05;;;0.73;;
35971;SDS011;22052;0.000;0.000;2022-07-09T14:09:36;0.80;;;0.73;;
35971;SDS011;22052;0.000;0.000;2022-07-09T14:12:05;1.20;;;0.80;;
35971;SDS011;22052;0.000;0.000;2022-07-09T14:14:34;3.80;;;0.95;;
35971;SDS011;22052;0.000;0.000;2022-07-09T14:17:05;1.23;;;0.70;;
35971;SDS011;22052;0.000;0.000;2022-07-09T14:19:40;1.13;;;0.68;;
35971;SDS011;22052;0.000;0.000;2022-07-09T14:22:10;1.15;;;0.70;;
35971;SDS011;22052;0.000;0.000;2022-07-09T14:24:42;1.70;;;0.73;;
35971;SDS011;22052;0.000;0.000;2022-07-09T14:27:12;1.65;;;0.60;;
35971;SDS011;22052;0.000;0.000;2022-07-09T14:29:40;1.15;;;0.77;;
35971;SDS011;22052;0.000;0.000;2022-07-09T14:32:08;0.60;;;0.60;;
35971;SDS011;22052;0.000;0.000;2022-07-09T14:34:37;0.90;;;0.70;;
35971;SDS011;22052;0.000;0.000;2022-07-09T14:37:06;2.25;;;0.63;;
35971;SDS011;22052;0.000;0.000;2022-07-09T14:39:34;0.90;;;0.73;;
35971;SDS011;22052;0.000;0.000;2022-07-09T14:42:05;1.02;;;0.60;;
35971;SDS011;22052;0.000;0.000;2022-07-09T14:44:34;0.90;;;0.70;;
35971;SDS011;22052;0.000;0.000;2022-07-09T14:47:06;1.88;;;0.70;;
35971;SDS011;22052;0.000;0.000;2022-07-09T14:49:34;1.08;;;0.68;;
35971;SDS011;22052;0.000;0.000;2022-07-09T14:52:02;0.95;;;0.60;;
35971;SDS011;22052;0.000;0.000;2022-07-09T14:54:31;2.90;;;0.98;;
35971;SDS011;22052;0.000;0.000;2022-07-09T14:57:00;0.80;;;0.60;;
35971;SDS011;22052;0.000;0.000;2022-07-09T14:59:27;1.20;;;0.70;;
35971;SDS011;22052;0.000;0.000;2022-07-09T15:01:56;1.10;;;0.80;;
35971;SDS011;22052;0.000;0.000;2022-07-09T15:04:30;0.77;;;0.60;;
35971;SDS011;22052;0.000;0.000;2022-07-09T15:07:23;1.40;;;0.80;;
35971;SDS011;22052;0.000;0.000;2022-07-09T15:09:56;1.70;;;0.77;;
35971;SDS011;22052;0.000;0.000;2022-07-09T15:12:27;1.63;;;0.60;;
35971;SDS011;22052;0.000;0.000;2022-07-09T15:15:03;1.58;;;0.70;;
35971;SDS011;22052;0.000;0.000;2022-07-09T15:17:31;1.00;;;0.70;;
35971;SDS011;22052;0.000;0.000;2022-07-09T15:20:03;1.75;;;0.75;;
35971;SDS011;22052;0.000;0.000;2022-07-09T15:22:34;2.17;;;0.80;;
35971;SDS011;22052;0.000;0.000;2022-07-09T15:25:03;1.48;;;0.82;;
35971;SDS011;22052;0.000;0.000;2022-07-09T15:27:43;2.10;;;0.50;;
35971;SDS011;22052;0.000;0.000;2022-07-09T15:30:14;0.90;;;0.60;;
35971;SDS011;22052;0.000;0.000;2022-07-09T15:32:48;1.15;;;0.70;;
35971;SDS011;22052;0.000;0.000;2022-07-09T15:35:16;3.83;;;0.80;;
35971;SDS011;22052;0.000;0.000;2022-07-09T15:37:46;0.70;;;0.63;;
35971;SDS011;22052;0.000;0.000;2022-07-09T15:40:36;2.60;;;0.80;;